Portada
METAR-TAF:

METAR-TAF

Aeropuertos :

Macomb Municipal Airport

Macomb, Illinois, Estados Unidos

latitud: 40-31-13N, longitud: 090-39-09W, altitud: 216 m

Observación

El informe se hizo hace 31 minutos, a las 08:35 UTC
Viento calma
Temperatura 20°C
Humedad 100%
Presión 1016 hPa
Visibilidad: 16.1 km
Nubes dispersas a una altura de 12000 ft

METAR: KMQB 060835Z AUTO 00000KT 10SM SCT120 20/20 A3001 RMK AO2 LTG DSNT NW T02010200

Hora: 04:06 (09:06 UTC)


TAF: falta

Observaciones y pronósticos meteorológicos de más de 4000 aeropuertos (mensajes METAR y TAF).

Los puntos amarillos y rojos representan las estaciones disponibles.

Ponga el ratón en el punto deseado para ver el nombre de la estación.

Haga clic para ver las observaciones y los pronósticos meteorológicos.

Para cambiar el mapa : haga clic en los botones verdes con una cruz de color negro para hacer un zoom, en el botón verde con un guión para alejar o en las flechas verdes para mapas adyacentes.


METAR-TAF: